Time;durP1;ratioP1;P1;durP2;ratioP2;P2;SDS_P1;SDS_P2;PMS_P1;PMS_P2;Temp;Humidity;BMP_temperature;BMP_pressure;BME280_temperature;BME280_humidity;BME280_pressure;Samples;Min_cycle;Max_cycle;Signal;HPM_P1;HPM_P2
2021/11/05 00:00:33;;;;;;;2.28;1.80;;;;;;;;;;5039747;28;20394;-68
2021/11/05 00:03:00;;;;;;;5.13;2.00;;;;;;;;;;5035634;28;20852;-68
2021/11/05 00:05:27;;;;;;;5.53;1.90;;;;;;;;;;5039080;28;20045;-68
2021/11/05 00:07:54;;;;;;;4.00;1.80;;;;;;;;;;5039446;28;20049;-68
2021/11/05 00:10:21;;;;;;;2.25;1.52;;;;;;;;;;5042095;28;20077;-68
2021/11/05 00:12:48;;;;;;;3.33;2.00;;;;;;;;;;5033193;28;20055;-67
2021/11/05 00:15:14;;;;;;;4.38;1.90;;;;;;;;;;5041792;28;20084;-67
2021/11/05 00:17:42;;;;;;;;;;;;;;;;;;5037914;28;20489;-67
2021/11/05 00:20:08;;;;;;;2.72;1.80;;;;;;;;;;5041970;28;20007;-68
2021/11/05 00:22:35;;;;;;;2.10;1.73;;;;;;;;;;5038127;28;20053;-67
2021/11/05 00:25:03;;;;;;;3.70;1.90;;;;;;;;;;5037711;28;20114;-68
2021/11/05 00:27:29;;;;;;;2.15;1.55;;;;;;;;;;5038088;28;20379;-67
2021/11/05 00:29:56;;;;;;;2.13;1.60;;;;;;;;;;5040294;28;20133;-67
2021/11/05 00:32:22;;;;;;;2.50;1.63;;;;;;;;;;5037338;28;20119;-68
2021/11/05 00:34:49;;;;;;;6.40;1.80;;;;;;;;;;5036200;28;20111;-68
2021/11/05 00:37:15;;;;;;;5.43;1.90;;;;;;;;;;5038844;28;20081;-67
2021/11/05 00:39:42;;;;;;;2.67;1.63;;;;;;;;;;5035023;28;20459;-67
2021/11/05 00:42:08;;;;;;;1.20;1.10;;;;;;;;;;5039504;28;20537;-67
2021/11/05 00:44:34;;;;;;;2.75;1.67;;;;;;;;;;5038443;28;20533;-67
2021/11/05 00:47:01;;;;;;;1.42;1.33;;;;;;;;;;5042490;28;20108;-68
2021/11/05 00:49:27;;;;;;;1.65;1.50;;;;;;;;;;5039164;28;20080;-67
2021/11/05 00:51:54;;;;;;;5.03;1.50;;;;;;;;;;5038502;28;20128;-67
2021/11/05 00:54:20;;;;;;;3.80;1.45;;;;;;;;;;5036596;28;20488;-67
2021/11/05 00:56:47;;;;;;;5.07;1.42;;;;;;;;;;5037687;28;20063;-67
2021/11/05 00:59:13;;;;;;;1.92;1.40;;;;;;;;;;5038572;28;20144;-68
2021/11/05 01:01:40;;;;;;;5.90;1.43;;;;;;;;;;5039633;28;20076;-68
2021/11/05 01:04:06;;;;;;;5.15;1.40;;;;;;;;;;5033247;28;20397;-68
2021/11/05 01:06:33;;;;;;;1.75;1.42;;;;;;;;;;5038360;28;20041;-67
2021/11/05 01:09:00;;;;;;;1.40;1.30;;;;;;;;;;5036691;28;20124;-68
2021/11/05 01:11:27;;;;;;;1.45;1.25;;;;;;;;;;5033911;28;20080;-68
2021/11/05 01:13:53;;;;;;;2.90;1.52;;;;;;;;;;5038173;28;20164;-68
2021/11/05 01:16:20;;;;;;;2.55;1.30;;;;;;;;;;5036266;28;20068;-68
2021/11/05 01:18:47;;;;;;;1.55;1.30;;;;;;;;;;5037596;28;20132;-67
2021/11/05 01:21:14;;;;;;;2.53;1.38;;;;;;;;;;5038474;28;20045;-67
2021/11/05 01:23:42;;;;;;;2.35;1.38;;;;;;;;;;5040139;28;20069;-67
2021/11/05 01:26:09;;;;;;;1.27;1.17;;;;;;;;;;5040035;28;20049;-67
2021/11/05 01:28:36;;;;;;;4.32;1.40;;;;;;;;;;5039774;28;20049;-68
2021/11/05 01:31:03;;;;;;;1.67;1.20;;;;;;;;;;5038340;28;20059;-67
2021/11/05 01:33:29;;;;;;;4.00;1.52;;;;;;;;;;5038712;28;20069;-68
2021/11/05 01:35:56;;;;;;;2.20;1.13;;;;;;;;;;5039084;28;20131;-67
2021/11/05 01:38:22;;;;;;;1.67;1.42;;;;;;;;;;5037124;28;20077;-67
2021/11/05 01:40:50;;;;;;;1.85;0.88;;;;;;;;;;5037490;28;20044;-68
2021/11/05 01:43:16;;;;;;;2.55;1.10;;;;;;;;;;5035343;28;20042;-68
2021/11/05 01:45:43;;;;;;;1.20;1.10;;;;;;;;;;5033443;28;20069;-67
2021/11/05 01:48:10;;;;;;;1.92;1.15;;;;;;;;;;5039725;28;20049;-68
2021/11/05 01:50:37;;;;;;;2.15;1.35;;;;;;;;;;5032914;28;20091;-68
2021/11/05 01:53:08;;;;;;;2.30;1.30;;;;;;;;;;5039089;28;20516;-67
2021/11/05 01:55:35;;;;;;;1.10;1.00;;;;;;;;;;5036092;28;20192;-67
2021/11/05 01:58:01;;;;;;;5.40;1.30;;;;;;;;;;5035561;28;20684;-67
2021/11/05 02:00:29;;;;;;;1.77;1.30;;;;;;;;;;5033886;28;20456;-68
2021/11/05 02:02:56;;;;;;;3.13;1.20;;;;;;;;;;5036181;28;20072;-67
2021/11/05 02:05:23;;;;;;;1.85;1.00;;;;;;;;;;5034798;28;20143;-68
2021/11/05 02:07:51;;;;;;;2.33;1.08;;;;;;;;;;5039296;28;20095;-68
2021/11/05 02:10:19;;;;;;;2.30;1.00;;;;;;;;;;5033121;28;20128;-68
2021/11/05 02:12:46;;;;;;;1.73;1.23;;;;;;;;;;5039626;28;20564;-68
2021/11/05 02:15:14;;;;;;;2.70;0.80;;;;;;;;;;5037672;28;20045;-68
2021/11/05 02:17:42;;;;;;;1.90;0.80;;;;;;;;;;5037848;28;20045;-68
2021/11/05 02:20:08;;;;;;;;;;;;;;;;;;5034476;28;20085;-67
2021/11/05 02:22:35;;;;;;;2.42;1.02;;;;;;;;;;5036046;28;20415;-68
2021/11/05 02:25:02;;;;;;;1.10;1.00;;;;;;;;;;5033209;28;20143;-67
2021/11/05 02:27:29;;;;;;;1.45;1.10;;;;;;;;;;5036752;28;20064;-67
2021/11/05 02:29:56;;;;;;;1.40;1.00;;;;;;;;;;5038836;28;20640;-67
2021/11/05 02:32:23;;;;;;;0.80;0.80;;;;;;;;;;5034561;28;20470;-67
2021/11/05 02:34:50;;;;;;;1.20;1.10;;;;;;;;;;5041449;28;20080;-67
2021/11/05 02:37:23;;;;;;;0.65;0.65;;;;;;;;;;5040105;28;20379;-68
2021/11/05 02:39:50;;;;;;;1.65;1.15;;;;;;;;;;5033290;28;20088;-68
2021/11/05 02:42:17;;;;;;;1.75;0.98;;;;;;;;;;5036236;28;20080;-67
2021/11/05 02:44:43;;;;;;;3.45;0.90;;;;;;;;;;5038266;28;20088;-68
2021/11/05 02:47:14;;;;;;;1.00;0.80;;;;;;;;;;5037954;28;20132;-67
2021/11/05 02:49:41;;;;;;;3.63;1.67;;;;;;;;;;5036220;28;20099;-67
2021/11/05 02:52:08;;;;;;;1.23;1.00;;;;;;;;;;5036563;28;20128;-68
2021/11/05 02:54:34;;;;;;;4.53;0.90;;;;;;;;;;5041225;28;20076;-67
2021/11/05 02:57:01;;;;;;;1.47;0.90;;;;;;;;;;5037711;28;20136;-68
2021/11/05 02:59:28;;;;;;;1.20;1.10;;;;;;;;;;5035618;28;20136;-68
2021/11/05 03:01:54;;;;;;;0.82;0.80;;;;;;;;;;5038618;28;20750;-68
2021/11/05 03:04:22;;;;;;;1.20;0.75;;;;;;;;;;5037700;28;20128;-68
2021/11/05 03:06:48;;;;;;;1.30;0.93;;;;;;;;;;5022800;28;20509;-68
2021/11/05 03:09:16;;;;;;;1.30;0.90;;;;;;;;;;5037984;28;20621;-68
2021/11/05 03:11:46;;;;;;;0.80;0.80;;;;;;;;;;5042170;28;20084;-69
2021/11/05 03:14:12;;;;;;;0.85;0.85;;;;;;;;;;5039374;28;20099;-68
2021/11/05 03:16:40;;;;;;;1.00;0.80;;;;;;;;;;5036763;28;20463;-68
2021/11/05 03:19:07;;;;;;;1.80;0.60;;;;;;;;;;5040566;28;20088;-68
2021/11/05 03:21:34;;;;;;;0.57;0.53;;;;;;;;;;5039787;28;20195;-68
2021/11/05 03:24:00;;;;;;;0.63;0.60;;;;;;;;;;5043006;28;20339;-68
2021/11/05 03:26:28;;;;;;;0.50;0.50;;;;;;;;;;5041840;28;20476;-68
2021/11/05 03:28:54;;;;;;;2.17;0.65;;;;;;;;;;5037940;28;20128;-68
2021/11/05 03:31:21;;;;;;;2.72;0.98;;;;;;;;;;5036811;28;20123;-68
2021/11/05 03:33:48;;;;;;;2.90;0.77;;;;;;;;;;5038096;28;20127;-68
2021/11/05 03:36:15;;;;;;;0.85;0.70;;;;;;;;;;5035672;28;20103;-68
2021/11/05 03:38:41;;;;;;;0.95;0.80;;;;;;;;;;5039536;28;20476;-69
2021/11/05 03:41:08;;;;;;;1.35;0.70;;;;;;;;;;5039294;28;20045;-68
2021/11/05 03:43:35;;;;;;;1.20;0.70;;;;;;;;;;5036858;28;20087;-68
2021/11/05 03:46:04;;;;;;;1.38;0.70;;;;;;;;;;5040218;28;20218;-68
2021/11/05 03:48:34;;;;;;;0.93;0.60;;;;;;;;;;5039016;28;20628;-68
2021/11/05 03:51:01;;;;;;;3.70;1.10;;;;;;;;;;5043867;28;20099;-68
2021/11/05 03:53:28;;;;;;;1.30;0.80;;;;;;;;;;5043809;28;20124;-68
2021/11/05 03:55:55;;;;;;;0.90;0.82;;;;;;;;;;5034334;28;20466;-68
2021/11/05 03:58:21;;;;;;;0.73;0.73;;;;;;;;;;5039190;28;20445;-68
2021/11/05 04:00:48;;;;;;;0.63;0.63;;;;;;;;;;5043688;28;20103;-68
2021/11/05 04:03:14;;;;;;;1.07;1.00;;;;;;;;;;5041077;28;20520;-68
2021/11/05 04:05:41;;;;;;;2.03;0.52;;;;;;;;;;5040953;28;20215;-68
2021/11/05 04:08:07;;;;;;;0.93;0.88;;;;;;;;;;5037611;28;20500;-68
2021/11/05 04:10:34;;;;;;;2.05;0.95;;;;;;;;;;5040852;28;20077;-68
2021/11/05 04:13:01;;;;;;;0.98;0.90;;;;;;;;;;5037202;28;20137;-68
2021/11/05 04:15:28;;;;;;;0.77;0.77;;;;;;;;;;5039230;28;20492;-68
2021/11/05 04:17:55;;;;;;;0.82;0.80;;;;;;;;;;5039071;28;20081;-68
2021/11/05 04:20:22;;;;;;;1.13;0.93;;;;;;;;;;5036110;28;20073;-68
2021/11/05 04:22:48;;;;;;;0.70;0.70;;;;;;;;;;5041130;28;20662;-68
2021/11/05 04:25:15;;;;;;;1.00;0.90;;;;;;;;;;5037033;28;20080;-68
2021/11/05 04:27:41;;;;;;;0.88;0.80;;;;;;;;;;5039629;28;20132;-68
2021/11/05 04:30:09;;;;;;;2.00;1.52;;;;;;;;;;5038752;28;20152;-68
2021/11/05 04:32:36;;;;;;;0.90;0.90;;;;;;;;;;5034153;28;20671;-68
2021/11/05 04:35:02;;;;;;;0.77;0.77;;;;;;;;;;5038348;28;20196;-68
2021/11/05 04:37:29;;;;;;;1.23;1.10;;;;;;;;;;5036857;28;20132;-69
2021/11/05 04:39:55;;;;;;;0.85;0.85;;;;;;;;;;5037879;28;20589;-68
2021/11/05 04:42:22;;;;;;;1.77;0.93;;;;;;;;;;5021178;28;20128;-68
2021/11/05 04:44:48;;;;;;;2.72;0.70;;;;;;;;;;5039020;28;20124;-68
2021/11/05 04:47:16;;;;;;;0.70;0.70;;;;;;;;;;5036288;28;20080;-68
2021/11/05 04:49:43;;;;;;;0.57;0.57;;;;;;;;;;5039831;28;20658;-68
2021/11/05 04:52:09;;;;;;;1.58;0.75;;;;;;;;;;5037056;28;20128;-68
2021/11/05 04:54:36;;;;;;;2.08;0.77;;;;;;;;;;5033433;28;20092;-68
2021/11/05 04:57:02;;;;;;;1.10;0.75;;;;;;;;;;5039158;28;20076;-68
2021/11/05 04:59:29;;;;;;;2.50;1.07;;;;;;;;;;5037855;28;20149;-68
2021/11/05 05:01:55;;;;;;;0.90;0.60;;;;;;;;;;5035421;28;20327;-68
2021/11/05 05:04:22;;;;;;;1.63;0.93;;;;;;;;;;5037314;28;20124;-68
2021/11/05 05:06:48;;;;;;;1.27;0.80;;;;;;;;;;5038768;28;20080;-68
2021/11/05 05:09:15;;;;;;;3.58;0.80;;;;;;;;;;5031768;28;20316;-68
2021/11/05 05:11:45;;;;;;;1.00;0.85;;;;;;;;;;5036614;28;20076;-68
2021/11/05 05:14:13;;;;;;;0.95;0.70;;;;;;;;;;5035828;28;20049;-68
2021/11/05 05:16:39;;;;;;;;;;;;;;;;;;5036590;28;20123;-68
2021/11/05 05:19:06;;;;;;;3.70;1.02;;;;;;;;;;5035344;28;19978;-68
2021/11/05 05:21:33;;;;;;;1.27;0.70;;;;;;;;;;5036161;28;20493;-68
2021/11/05 05:23:59;;;;;;;0.50;0.50;;;;;;;;;;5035074;28;20320;-68
2021/11/05 05:26:26;;;;;;;0.80;0.73;;;;;;;;;;5039139;28;20374;-68
2021/11/05 05:28:52;;;;;;;0.60;0.60;;;;;;;;;;5033793;28;20128;-68
2021/11/05 05:31:19;;;;;;;0.70;0.70;;;;;;;;;;5036701;28;20618;-68
2021/11/05 05:33:46;;;;;;;0.75;0.75;;;;;;;;;;5036722;28;20128;-68
2021/11/05 05:36:12;;;;;;;0.60;0.60;;;;;;;;;;5032446;28;20128;-68
2021/11/05 05:38:39;;;;;;;1.42;0.80;;;;;;;;;;5031197;28;20479;-68
2021/11/05 05:41:09;;;;;;;1.05;0.90;;;;;;;;;;5034768;28;20054;-68
2021/11/05 05:43:36;;;;;;;2.53;1.00;;;;;;;;;;5042906;28;20053;-68
2021/11/05 05:46:03;;;;;;;0.80;0.80;;;;;;;;;;5043953;28;20136;-68
2021/11/05 05:48:30;;;;;;;1.05;0.90;;;;;;;;;;5036257;28;20045;-68
2021/11/05 05:50:56;;;;;;;2.60;0.87;;;;;;;;;;5034736;28;20469;-68
2021/11/05 05:53:23;;;;;;;0.80;0.80;;;;;;;;;;5038414;28;20116;-68
2021/11/05 05:55:49;;;;;;;0.80;0.75;;;;;;;;;;5039465;28;20125;-68
2021/11/05 05:58:16;;;;;;;0.80;0.70;;;;;;;;;;5034269;28;20092;-68
2021/11/05 06:00:42;;;;;;;3.15;0.80;;;;;;;;;;5039610;28;20495;-68
2021/11/05 06:03:09;;;;;;;2.40;0.80;;;;;;;;;;5043679;28;20144;-68
2021/11/05 06:05:36;;;;;;;0.80;0.80;;;;;;;;;;5034953;28;20053;-68
2021/11/05 06:08:03;;;;;;;2.03;0.90;;;;;;;;;;5034079;28;20478;-68
2021/11/05 06:10:30;;;;;;;1.88;1.05;;;;;;;;;;5031951;28;20136;-68
2021/11/05 06:12:56;;;;;;;1.60;0.88;;;;;;;;;;5037762;28;20128;-68
2021/11/05 06:15:23;;;;;;;1.77;0.90;;;;;;;;;;5036462;28;20458;-68
2021/11/05 06:17:49;;;;;;;1.13;0.82;;;;;;;;;;5040926;28;20125;-68
2021/11/05 06:20:16;;;;;;;1.20;1.10;;;;;;;;;;5040851;28;20085;-68
2021/11/05 06:22:42;;;;;;;4.90;0.90;;;;;;;;;;5038856;28;20129;-68
2021/11/05 06:25:09;;;;;;;1.50;0.98;;;;;;;;;;5037578;28;20089;-67
2021/11/05 06:27:35;;;;;;;0.80;0.77;;;;;;;;;;5037319;28;20139;-67
2021/11/05 06:30:02;;;;;;;0.90;0.90;;;;;;;;;;5039204;28;20477;-68
2021/11/05 06:32:29;;;;;;;1.23;1.02;;;;;;;;;;5040361;28;20156;-68
2021/11/05 06:34:56;;;;;;;4.80;1.30;;;;;;;;;;5038885;28;20041;-68
2021/11/05 06:37:22;;;;;;;1.75;1.17;;;;;;;;;;5040212;28;20103;-68
2021/11/05 06:39:49;;;;;;;1.83;1.00;;;;;;;;;;5046124;28;20129;-68
2021/11/05 06:42:21;;;;;;;3.45;1.10;;;;;;;;;;5041143;28;20480;-68
2021/11/05 06:44:51;;;;;;;1.25;1.10;;;;;;;;;;5038055;28;20111;-68
2021/11/05 06:47:19;;;;;;;1.25;1.10;;;;;;;;;;5041592;28;20457;-68
2021/11/05 06:49:45;;;;;;;;;;;;;;;;;;5042796;28;20524;-68
2021/11/05 06:52:11;;;;;;;1.70;1.30;;;;;;;;;;5044345;28;20450;-68
2021/11/05 06:54:38;;;;;;;1.58;1.25;;;;;;;;;;5040001;28;20135;-68
2021/11/05 06:57:06;;;;;;;1.45;1.15;;;;;;;;;;5039002;28;20134;-68
2021/11/05 06:59:33;;;;;;;2.05;1.20;;;;;;;;;;5038802;28;20080;-68
2021/11/05 07:02:00;;;;;;;3.85;1.25;;;;;;;;;;5039200;28;20592;-68
2021/11/05 07:04:26;;;;;;;3.75;1.23;;;;;;;;;;5043920;28;20133;-68
2021/11/05 07:06:53;;;;;;;1.92;1.20;;;;;;;;;;5033976;28;20562;-68
2021/11/05 07:09:20;;;;;;;1.10;1.00;;;;;;;;;;5039919;28;20128;-68
2021/11/05 07:11:46;;;;;;;1.48;1.17;;;;;;;;;;5040157;28;20073;-68
2021/11/05 07:14:14;;;;;;;1.58;1.10;;;;;;;;;;5027805;28;20111;-68
2021/11/05 07:16:41;;;;;;;;;;;;;;;;;;5038643;28;20124;-68
2021/11/05 07:19:07;;;;;;;2.03;1.30;;;;;;;;;;5038400;28;19975;-67
2021/11/05 07:21:34;;;;;;;1.70;1.40;;;;;;;;;;5036370;28;20556;-68
2021/11/05 07:24:02;;;;;;;2.13;1.52;;;;;;;;;;5041801;28;20505;-68
2021/11/05 07:26:34;;;;;;;5.38;1.90;;;;;;;;;;5035712;28;20140;-68
2021/11/05 07:29:02;;;;;;;1.95;1.63;;;;;;;;;;5037845;28;20616;-68
2021/11/05 07:31:29;;;;;;;4.03;1.83;;;;;;;;;;5043176;28;20148;-68
2021/11/05 07:33:55;;;;;;;4.93;1.55;;;;;;;;;;5041850;28;20120;-68
2021/11/05 07:36:22;;;;;;;2.03;1.42;;;;;;;;;;5037848;28;20120;-68
2021/11/05 07:38:48;;;;;;;2.08;1.38;;;;;;;;;;5039658;28;20075;-68
2021/11/05 07:41:15;;;;;;;1.97;1.37;;;;;;;;;;5036707;28;20041;-69
2021/11/05 07:43:41;;;;;;;2.97;2.03;;;;;;;;;;5033653;28;20076;-68
2021/11/05 07:46:08;;;;;;;2.60;1.60;;;;;;;;;;5035576;28;20608;-68
2021/11/05 07:48:35;;;;;;;1.60;1.40;;;;;;;;;;5038901;28;20413;-69
2021/11/05 07:51:01;;;;;;;1.92;1.05;;;;;;;;;;5040294;28;20102;-68
2021/11/05 07:53:28;;;;;;;2.08;1.38;;;;;;;;;;5021929;28;20579;-68
2021/11/05 07:55:54;;;;;;;1.52;1.30;;;;;;;;;;5040929;28;20523;-68
2021/11/05 07:58:21;;;;;;;1.90;1.60;;;;;;;;;;5036924;28;20515;-67
2021/11/05 08:00:50;;;;;;;1.65;1.45;;;;;;;;;;5038227;28;20084;-68
2021/11/05 08:03:18;;;;;;;1.50;1.30;;;;;;;;;;5040106;28;20467;-68
2021/11/05 08:05:44;;;;;;;2.60;1.60;;;;;;;;;;5036226;28;20077;-68
2021/11/05 08:08:11;;;;;;;6.37;1.53;;;;;;;;;;5042792;28;20131;-68
2021/11/05 08:10:37;;;;;;;1.67;1.40;;;;;;;;;;5038966;28;20139;-68
2021/11/05 08:13:04;;;;;;;2.33;1.35;;;;;;;;;;5036221;28;20111;-68
2021/11/05 08:15:35;;;;;;;2.53;1.67;;;;;;;;;;5042214;28;20539;-69
2021/11/05 08:18:01;;;;;;;2.30;1.48;;;;;;;;;;5039554;28;20057;-68
2021/11/05 08:20:28;;;;;;;1.52;1.42;;;;;;;;;;5039931;28;20401;-68
2021/11/05 08:22:54;;;;;;;3.78;1.50;;;;;;;;;;5041058;28;20080;-68
2021/11/05 08:25:21;;;;;;;2.30;1.40;;;;;;;;;;5037999;28;20081;-68
2021/11/05 08:27:48;;;;;;;1.50;1.35;;;;;;;;;;5035367;28;20080;-68
2021/11/05 08:30:20;;;;;;;1.77;1.30;;;;;;;;;;5041880;28;20080;-68
2021/11/05 08:32:47;;;;;;;1.60;1.50;;;;;;;;;;5040509;28;20068;-68
2021/11/05 08:35:14;;;;;;;7.40;1.30;;;;;;;;;;5043057;28;20088;-68
2021/11/05 08:37:42;;;;;;;1.70;1.50;;;;;;;;;;5037789;28;20092;-68
2021/11/05 08:40:09;;;;;;;3.72;2.20;;;;;;;;;;5039577;28;20092;-68
2021/11/05 08:42:36;;;;;;;3.47;2.35;;;;;;;;;;5037704;28;20073;-68
2021/11/05 08:45:04;;;;;;;2.85;2.17;;;;;;;;;;5035479;28;20079;-68
2021/11/05 08:47:30;;;;;;;2.80;1.30;;;;;;;;;;5036016;28;20072;-68
2021/11/05 08:49:56;;;;;;;2.90;2.15;;;;;;;;;;5035201;28;20401;-68
2021/11/05 08:52:23;;;;;;;1.50;1.40;;;;;;;;;;5041253;28;20132;-68
2021/11/05 08:54:49;;;;;;;1.65;1.30;;;;;;;;;;5040820;28;20083;-68
2021/11/05 08:57:16;;;;;;;1.60;1.40;;;;;;;;;;5039157;28;20073;-68
2021/11/05 08:59:43;;;;;;;2.55;1.58;;;;;;;;;;5037302;28;20132;-68
2021/11/05 09:02:09;;;;;;;2.40;1.98;;;;;;;;;;5037000;28;20053;-68
2021/11/05 09:04:36;;;;;;;3.72;1.77;;;;;;;;;;5036149;28;20081;-68
2021/11/05 09:07:03;;;;;;;1.70;1.60;;;;;;;;;;5036517;28;20137;-68
2021/11/05 09:09:30;;;;;;;1.90;1.67;;;;;;;;;;5034519;28;20445;-68
2021/11/05 09:11:56;;;;;;;2.67;1.65;;;;;;;;;;5037151;28;20083;-68
2021/11/05 09:14:23;;;;;;;1.58;1.48;;;;;;;;;;5037900;28;20055;-68
2021/11/05 09:17:07;;;;;;;1.90;1.40;;;;;;;;;;5039832;28;20069;-68
2021/11/05 09:19:34;;;;;;;2.55;1.50;;;;;;;;;;5037331;28;20152;-68
2021/11/05 09:22:01;;;;;;;3.30;1.95;;;;;;;;;;5040503;28;20103;-68
2021/11/05 09:24:27;;;;;;;2.47;1.92;;;;;;;;;;5019465;28;20131;-68
2021/11/05 09:26:54;;;;;;;2.13;1.70;;;;;;;;;;5035564;28;20056;-68
2021/11/05 09:29:20;;;;;;;2.28;1.80;;;;;;;;;;5035881;28;20120;-68
2021/11/05 09:31:47;;;;;;;2.80;1.90;;;;;;;;;;5040927;28;20132;-68
2021/11/05 09:34:14;;;;;;;2.53;1.63;;;;;;;;;;5038905;28;20714;-68
2021/11/05 09:36:40;;;;;;;2.15;1.70;;;;;;;;;;5034832;28;20335;-68
2021/11/05 09:39:06;;;;;;;2.17;1.60;;;;;;;;;;5039738;28;20637;-68
2021/11/05 09:41:35;;;;;;;2.45;1.67;;;;;;;;;;5040803;28;20463;-68
2021/11/05 09:44:02;;;;;;;3.45;1.80;;;;;;;;;;5034126;28;20136;-68
2021/11/05 09:46:29;;;;;;;6.88;2.05;;;;;;;;;;5034936;28;20092;-68
2021/11/05 09:48:56;;;;;;;;;;;;;;;;;;5037470;28;20121;-68
2021/11/05 09:51:22;;;;;;;4.07;1.40;;;;;;;;;;5037911;28;20369;-68
2021/11/05 09:53:49;;;;;;;4.60;1.42;;;;;;;;;;5038056;28;20083;-68
2021/11/05 09:56:18;;;;;;;1.85;1.50;;;;;;;;;;5041637;28;20535;-69
2021/11/05 09:58:45;;;;;;;1.73;1.60;;;;;;;;;;5037603;28;20081;-68
2021/11/05 10:01:12;;;;;;;1.63;1.50;;;;;;;;;;5040869;28;20088;-69
2021/11/05 10:03:40;;;;;;;3.00;1.60;;;;;;;;;;5036130;28;20091;-69
2021/11/05 10:06:07;;;;;;;1.88;1.63;;;;;;;;;;5035634;28;20091;-68
2021/11/05 10:08:34;;;;;;;1.73;1.52;;;;;;;;;;5039716;28;20129;-68
2021/11/05 10:11:17;;;;;;;2.50;1.48;;;;;;;;;;5036659;28;20084;-68
2021/11/05 10:13:45;;;;;;;2.78;1.90;;;;;;;;;;5039612;28;20532;-68
2021/11/05 10:16:13;;;;;;;2.30;1.83;;;;;;;;;;5034573;28;20088;-68
2021/11/05 10:18:52;;;;;;;2.55;1.45;;;;;;;;;;5040271;28;20081;-68
2021/11/05 10:21:19;;;;;;;2.38;1.60;;;;;;;;;;5036808;28;20092;-68
2021/11/05 10:23:46;;;;;;;1.80;1.55;;;;;;;;;;5036275;28;20124;-68
2021/11/05 10:26:38;;;;;;;3.72;1.80;;;;;;;;;;5041973;28;20127;-68
2021/11/05 10:29:06;;;;;;;2.75;1.50;;;;;;;;;;5033917;28;20120;-68
2021/11/05 10:31:46;;;;;;;3.15;1.70;;;;;;;;;;5039153;28;20077;-68
2021/11/05 10:34:13;;;;;;;2.33;1.50;;;;;;;;;;5041625;28;20092;-68
2021/11/05 10:36:47;;;;;;;1.73;1.48;;;;;;;;;;5036946;28;20077;-68
2021/11/05 10:39:15;;;;;;;1.92;1.55;;;;;;;;;;5035669;28;20437;-68
2021/11/05 10:41:41;;;;;;;;;;;;;;;;;;5038014;28;20144;-68
2021/11/05 10:44:13;;;;;;;5.28;1.90;;;;;;;;;;5041101;28;19968;-68
2021/11/05 10:46:40;;;;;;;5.25;1.63;;;;;;;;;;5041428;28;20584;-68
2021/11/05 10:49:23;;;;;;;2.60;1.50;;;;;;;;;;5035531;28;20137;-68
2021/11/05 10:51:50;;;;;;;3.30;1.70;;;;;;;;;;5035011;28;20570;-68
2021/11/05 10:54:18;;;;;;;2.75;1.65;;;;;;;;;;5036732;28;20052;-68
2021/11/05 10:56:46;;;;;;;1.92;1.45;;;;;;;;;;5033045;28;20128;-68
2021/11/05 10:59:13;;;;;;;2.10;1.45;;;;;;;;;;5033291;28;20582;-68
2021/11/05 11:01:41;;;;;;;2.28;1.55;;;;;;;;;;5035799;28;20053;-68
2021/11/05 11:04:09;;;;;;;4.55;1.35;;;;;;;;;;5042637;28;20045;-68
2021/11/05 11:06:42;;;;;;;4.15;1.55;;;;;;;;;;5033338;28;20566;-68
2021/11/05 11:09:10;;;;;;;2.40;1.38;;;;;;;;;;5039392;28;20083;-68
2021/11/05 11:11:39;;;;;;;3.10;1.25;;;;;;;;;;5033173;28;20084;-68
2021/11/05 11:14:09;;;;;;;2.42;1.20;;;;;;;;;;5040298;28;20567;-68
2021/11/05 11:16:37;;;;;;;3.78;1.38;;;;;;;;;;5033698;28;20081;-68
2021/11/05 11:19:05;;;;;;;1.63;1.00;;;;;;;;;;5037791;28;20505;-68
2021/11/05 11:21:34;;;;;;;1.85;1.30;;;;;;;;;;5040298;28;20128;-68
2021/11/05 11:24:01;;;;;;;1.35;1.10;;;;;;;;;;5039306;28;20053;-69
2021/11/05 11:26:28;;;;;;;1.33;1.13;;;;;;;;;;5040817;28;20132;-68
2021/11/05 11:28:55;;;;;;;1.17;1.00;;;;;;;;;;5041893;28;20081;-69
2021/11/05 11:31:23;;;;;;;2.40;1.00;;;;;;;;;;5038281;28;20092;-68
2021/11/05 11:33:51;;;;;;;1.60;1.08;;;;;;;;;;5040841;28;20548;-68
2021/11/05 11:36:19;;;;;;;3.15;0.88;;;;;;;;;;5041769;28;20045;-68
2021/11/05 11:38:49;;;;;;;2.10;1.17;;;;;;;;;;5039731;28;20075;-68
2021/11/05 11:41:17;;;;;;;1.10;0.80;;;;;;;;;;5034918;28;20045;-68
2021/11/05 11:43:44;;;;;;;1.48;0.90;;;;;;;;;;5042249;28;20493;-68
2021/11/05 11:46:11;;;;;;;3.47;1.20;;;;;;;;;;5043035;28;20119;-68
2021/11/05 11:48:41;;;;;;;6.47;0.93;;;;;;;;;;5041450;28;20128;-69
2021/11/05 11:51:17;;;;;;;1.27;0.82;;;;;;;;;;5039420;28;20137;-69
2021/11/05 11:53:47;;;;;;;2.00;1.23;;;;;;;;;;5038285;28;20128;-69
2021/11/05 11:56:23;;;;;;;1.92;1.30;;;;;;;;;;5035429;28;20085;-69
2021/11/05 11:58:51;;;;;;;2.05;0.93;;;;;;;;;;5036807;28;20120;-68
2021/11/05 12:01:23;;;;;;;1.13;0.80;;;;;;;;;;5044132;28;20075;-69
2021/11/05 12:04:03;;;;;;;2.67;0.82;;;;;;;;;;5038557;28;20041;-69
2021/11/05 12:06:51;;;;;;;2.90;0.90;;;;;;;;;;5036171;28;20540;-69
2021/11/05 12:09:27;;;;;;;1.20;0.70;;;;;;;;;;5027077;28;20152;-69
2021/11/05 12:12:14;;;;;;;2.15;0.77;;;;;;;;;;5036360;28;20489;-69
2021/11/05 12:14:59;;;;;;;0.85;0.70;;;;;;;;;;5034822;28;20091;-68
2021/11/05 12:17:35;;;;;;;1.58;0.60;;;;;;;;;;5035409;28;20087;-69
2021/11/05 12:20:35;;;;;;;4.47;0.90;;;;;;;;;;5049247;28;20102;-68
2021/11/05 12:23:11;;;;;;;3.40;0.80;;;;;;;;;;5037581;28;20083;-68
2021/11/05 12:25:41;;;;;;;3.80;0.95;;;;;;;;;;5040824;28;20049;-69
2021/11/05 12:28:18;;;;;;;3.63;0.70;;;;;;;;;;5034704;28;20077;-69
2021/11/05 12:30:46;;;;;;;3.00;1.00;;;;;;;;;;5035542;28;20088;-69
2021/11/05 12:33:36;;;;;;;1.30;0.77;;;;;;;;;;5036431;28;20536;-69
2021/11/05 12:36:04;;;;;;;1.17;0.50;;;;;;;;;;5029363;28;20092;-69
2021/11/05 12:38:31;;;;;;;1.13;0.70;;;;;;;;;;5040415;28;20041;-68
2021/11/05 12:40:59;;;;;;;2.80;1.35;;;;;;;;;;5036916;28;20140;-68
2021/11/05 12:43:26;;;;;;;1.27;0.43;;;;;;;;;;5045795;28;20081;-69
2021/11/05 12:45:57;;;;;;;3.53;1.05;;;;;;;;;;5040003;28;20141;-69
2021/11/05 12:48:37;;;;;;;4.20;1.35;;;;;;;;;;5041919;28;20045;-69
2021/11/05 12:51:11;;;;;;;1.48;0.55;;;;;;;;;;5034226;28;20084;-69
2021/11/05 12:53:40;;;;;;;1.08;0.50;;;;;;;;;;5034463;28;20120;-69
2021/11/05 12:56:07;;;;;;;1.30;0.50;;;;;;;;;;5038478;28;20662;-69
2021/11/05 12:58:35;;;;;;;3.72;0.77;;;;;;;;;;5040600;28;20040;-69
2021/11/05 13:01:05;;;;;;;1.58;0.60;;;;;;;;;;5040279;28;20056;-68
2021/11/05 13:03:32;;;;;;;3.95;0.77;;;;;;;;;;5037505;28;20048;-69
2021/11/05 13:06:00;;;;;;;1.70;0.55;;;;;;;;;;5038809;28;20084;-69
2021/11/05 13:08:33;;;;;;;2.08;0.50;;;;;;;;;;5038451;28;20081;-68
2021/11/05 13:11:09;;;;;;;6.03;1.13;;;;;;;;;;5038861;28;20136;-69
2021/11/05 13:13:36;;;;;;;7.13;1.00;;;;;;;;;;5037875;28;20115;-69
2021/11/05 13:16:17;;;;;;;5.22;0.77;;;;;;;;;;5037522;28;20045;-68
2021/11/05 13:18:44;;;;;;;;;;;;;;;;;;5038629;28;20129;-68
2021/11/05 13:21:21;;;;;;;1.63;0.73;;;;;;;;;;5037070;28;19998;-68
2021/11/05 13:23:48;;;;;;;3.72;0.70;;;;;;;;;;5037886;28;20128;-69
2021/11/05 13:26:15;;;;;;;3.65;0.55;;;;;;;;;;5033929;28;20137;-68
2021/11/05 13:28:44;;;;;;;3.25;0.88;;;;;;;;;;5036097;28;20140;-69
2021/11/05 13:31:11;;;;;;;2.88;0.65;;;;;;;;;;5036728;28;20519;-68
2021/11/05 13:33:37;;;;;;;4.95;0.77;;;;;;;;;;5042580;28;20180;-69
2021/11/05 13:36:08;;;;;;;2.72;0.93;;;;;;;;;;5033329;28;20497;-69
2021/11/05 13:38:48;;;;;;;5.63;1.10;;;;;;;;;;5040977;28;20088;-69
2021/11/05 13:41:16;;;;;;;5.80;0.90;;;;;;;;;;5042667;28;20093;-69
2021/11/05 13:43:44;;;;;;;9.30;1.05;;;;;;;;;;5031628;28;20076;-69
2021/11/05 13:46:12;;;;;;;6.47;0.95;;;;;;;;;;5035813;28;20135;-69
2021/11/05 13:48:40;;;;;;;4.70;0.90;;;;;;;;;;5038395;28;20159;-69
2021/11/05 13:51:18;;;;;;;6.18;1.13;;;;;;;;;;5036903;28;20127;-69
2021/11/05 13:53:46;;;;;;;8.73;1.58;;;;;;;;;;5037530;28;20136;-69
2021/11/05 13:56:13;;;;;;;8.15;0.90;;;;;;;;;;5038369;28;20124;-69
2021/11/05 13:58:40;;;;;;;2.70;0.82;;;;;;;;;;5036810;28;20176;-69
2021/11/05 14:01:07;;;;;;;5.75;1.10;;;;;;;;;;5037695;28;20081;-69
2021/11/05 14:03:35;;;;;;;9.95;1.70;;;;;;;;;;5041547;28;20148;-69
2021/11/05 14:06:13;;;;;;;6.90;1.17;;;;;;;;;;5036323;28;20077;-69
2021/11/05 14:08:58;;;;;;;12.18;1.30;;;;;;;;;;5032654;28;20057;-69
2021/11/05 14:11:34;;;;;;;7.97;1.55;;;;;;;;;;5035547;28;20132;-68
2021/11/05 14:14:02;;;;;;;13.10;1.60;;;;;;;;;;5035513;28;20449;-69
2021/11/05 14:16:30;;;;;;;8.93;1.60;;;;;;;;;;5039205;28;20049;-68
2021/11/05 14:19:07;;;;;;;4.90;1.08;;;;;;;;;;5035093;28;20123;-69
2021/11/05 14:21:34;;;;;;;10.18;1.67;;;;;;;;;;5040263;28;20045;-69
2021/11/05 14:24:16;;;;;;;7.70;1.38;;;;;;;;;;5038033;28;20073;-69
2021/11/05 14:26:43;;;;;;;6.80;1.20;;;;;;;;;;5034854;28;20115;-69
2021/11/05 14:29:17;;;;;;;12.48;1.90;;;;;;;;;;5039484;28;20110;-69
2021/11/05 14:31:55;;;;;;;9.20;1.30;;;;;;;;;;5040086;28;20069;-69
2021/11/05 14:34:23;;;;;;;12.52;1.40;;;;;;;;;;5039017;28;20084;-69
2021/11/05 14:37:09;;;;;;;9.32;1.40;;;;;;;;;;5039826;28;20142;-68
2021/11/05 14:39:45;;;;;;;8.05;1.23;;;;;;;;;;5035091;28;20136;-69
2021/11/05 14:42:19;;;;;;;9.05;1.35;;;;;;;;;;5034134;28;20068;-69
2021/11/05 14:44:46;;;;;;;5.95;1.33;;;;;;;;;;5036641;28;20124;-69
2021/11/05 14:47:13;;;;;;;6.90;1.57;;;;;;;;;;5036724;28;20138;-68
2021/11/05 14:49:42;;;;;;;6.17;1.60;;;;;;;;;;5035334;28;20081;-68
2021/11/05 14:52:10;;;;;;;12.20;1.55;;;;;;;;;;5042011;28;20580;-69